Time;durP1;ratioP1;P1;durP2;ratioP2;P2;SDS_P1;SDS_P2;PMS_P1;PMS_P2;Temp;Humidity;BMP_temperature;BMP_pressure;BME280_temperature;BME280_humidity;BME280_pressure;Samples;Min_cycle;Max_cycle;Signal;HPM_P1;HPM_P2
2020/12/09 00:01:48;;;;;;;14.83;6.55;;;;;;;-8.74;83.91;101796.98;1762781;81;21113;-56
2020/12/09 00:04:17;;;;;;;14.10;7.13;;;;;;;-8.75;83.97;101828.19;1763515;80;21137;-56
2020/12/09 00:06:45;;;;;;;17.85;7.30;;;;;;;-8.77;84.06;101837.46;1762707;80;21371;-58
2020/12/09 00:09:16;;;;;;;14.20;7.60;;;;;;;-8.78;84.10;101816.02;1766216;81;21173;-56
2020/12/09 00:11:44;;;;;;;15.27;7.23;;;;;;;-8.81;84.22;101828.25;1766698;80;21090;-56
2020/12/09 00:14:12;;;;;;;17.12;7.10;;;;;;;-8.84;84.33;101827.02;1768516;80;21145;-58
2020/12/09 00:16:40;;;;;;;12.40;5.45;;;;;;;-8.85;84.55;101830.42;1765649;80;21157;-58
2020/12/09 00:19:07;;;;;;;13.78;5.47;;;;;;;-8.88;84.71;101822.44;1766911;81;21191;-58
2020/12/09 00:21:35;;;;;;;13.30;5.72;;;;;;;-8.89;84.88;101798.03;1765372;81;21149;-57
2020/12/09 00:24:04;;;;;;;15.45;6.33;;;;;;;-8.90;84.95;101822.05;1769421;80;21104;-60
2020/12/09 00:26:50;;;;;;;17.77;7.70;;;;;;;-8.91;85.08;101803.95;1766251;80;21122;-58
2020/12/09 00:29:18;;;;;;;19.15;7.50;;;;;;;-8.93;85.22;101808.22;1769818;80;21124;-57
2020/12/09 00:31:46;;;;;;;14.98;7.15;;;;;;;-8.94;85.29;101809.05;1766740;80;21198;-57
2020/12/09 00:34:15;;;;;;;19.48;7.75;;;;;;;-8.96;85.38;101814.56;1761431;80;21165;-57
2020/12/09 00:36:44;;;;;;;16.95;7.33;;;;;;;-8.99;85.52;101819.66;1764918;81;21157;-58
2020/12/09 00:39:12;;;;;;;14.05;6.05;;;;;;;-9.00;85.69;101828.09;1763695;80;21181;-58
2020/12/09 00:41:40;;;;;;;15.20;6.53;;;;;;;-9.04;85.79;101820.98;1762155;80;21157;-56
2020/12/09 00:44:08;;;;;;;18.42;7.35;;;;;;;-9.04;86.02;101834.05;1767516;81;21380;-55
2020/12/09 00:46:36;;;;;;;17.30;7.20;;;;;;;-9.03;86.20;101835.70;1764573;81;21161;-57
2020/12/09 00:49:05;;;;;;;14.90;6.22;;;;;;;-9.03;86.26;101832.75;1762838;81;21007;-56
2020/12/09 00:51:33;;;;;;;18.12;6.20;;;;;;;-9.02;86.28;101822.21;1747459;81;21169;-56
2020/12/09 00:54:01;;;;;;;14.68;6.15;;;;;;;-9.02;86.46;101833.58;1765693;81;21160;-56
2020/12/09 00:56:31;;;;;;;10.75;5.85;;;;;;;-9.01;86.56;101845.38;1768974;81;21432;-57
2020/12/09 00:59:03;;;;;;;12.73;6.67;;;;;;;-9.00;86.81;101830.63;1762572;80;21212;-57
2020/12/09 01:01:31;;;;;;;12.75;6.87;;;;;;;-8.94;86.92;101826.73;1768127;81;21843;-56
2020/12/09 01:04:05;;;;;;;14.03;7.00;;;;;;;-8.90;86.96;101825.83;1763688;80;21228;-56
2020/12/09 01:06:34;;;;;;;14.28;5.83;;;;;;;-8.85;86.95;101825.36;1769641;80;21069;-56
2020/12/09 01:09:06;;;;;;;13.18;6.30;;;;;;;-8.83;86.95;101833.31;1764518;80;21798;-56
2020/12/09 01:11:35;;;;;;;12.88;6.28;;;;;;;-8.78;87.17;101816.84;1767050;80;21564;-57
2020/12/09 01:14:03;;;;;;;14.87;5.55;;;;;;;-8.72;87.22;101817.17;1761250;81;21034;-57
2020/12/09 01:16:31;;;;;;;13.48;5.92;;;;;;;-8.71;87.02;101836.53;1772133;80;21054;-58
2020/12/09 01:18:59;;;;;;;14.23;6.05;;;;;;;-8.76;87.02;101829.45;1766090;80;21081;-56
2020/12/09 01:21:29;;;;;;;12.80;6.05;;;;;;;-8.79;87.25;101822.73;1764776;81;21235;-58
2020/12/09 01:23:57;;;;;;;13.60;5.62;;;;;;;-8.79;87.56;101818.94;1767412;81;21162;-56
2020/12/09 01:26:26;;;;;;;13.10;5.35;;;;;;;-8.79;87.93;101821.47;1767675;80;21965;-57
2020/12/09 01:28:54;;;;;;;14.18;5.83;;;;;;;-8.75;88.08;101833.23;1764036;81;21027;-56
2020/12/09 01:31:23;;;;;;;14.73;6.53;;;;;;;-8.73;88.19;101801.17;1770694;80;21167;-58
2020/12/09 01:33:51;;;;;;;10.40;5.58;;;;;;;-8.72;88.24;101814.22;1765026;80;21447;-56
2020/12/09 01:36:23;;;;;;;16.37;7.25;;;;;;;-8.73;88.14;101803.70;1765233;80;21165;-58
2020/12/09 01:38:52;;;;;;;19.12;6.67;;;;;;;-8.78;88.08;101810.96;1764944;81;21165;-57
2020/12/09 01:41:22;;;;;;;21.65;7.78;;;;;;;-8.85;88.23;101808.50;1768162;81;21171;-58
2020/12/09 01:43:51;;;;;;;15.03;6.95;;;;;;;-8.87;88.36;101810.64;1765514;80;20979;-57
2020/12/09 01:46:30;;;;;;;17.02;6.05;;;;;;;-8.90;88.43;101814.06;1765033;81;21205;-57
2020/12/09 01:48:59;;;;;;;10.55;5.37;;;;;;;-8.94;88.43;101818.75;1764434;81;21216;-57
2020/12/09 01:51:28;;;;;;;12.85;5.80;;;;;;;-8.96;88.42;101820.88;1767507;80;21120;-56
2020/12/09 01:53:58;;;;;;;13.18;5.85;;;;;;;-9.01;88.46;101826.44;1768995;80;21134;-58
2020/12/09 01:56:27;;;;;;;14.43;5.70;;;;;;;-9.06;88.64;101829.83;1765012;80;21086;-58
2020/12/09 01:58:55;;;;;;;14.18;6.55;;;;;;;-9.08;88.83;101825.23;1766212;80;21261;-57
2020/12/09 02:01:23;;;;;;;16.42;7.22;;;;;;;-9.10;88.84;101834.51;1764649;81;21172;-58
2020/12/09 02:03:51;;;;;;;15.23;6.00;;;;;;;-9.15;88.82;101831.22;1764301;81;21193;-57
2020/12/09 02:06:20;;;;;;;17.37;6.87;;;;;;;-9.20;88.84;101846.86;1763749;81;21150;-57
2020/12/09 02:08:48;;;;;;;14.15;6.08;;;;;;;-9.26;89.03;101845.66;1771116;80;21062;-56
2020/12/09 02:11:17;;;;;;;15.65;6.78;;;;;;;-9.27;89.26;101848.22;1763972;80;21196;-57
2020/12/09 02:13:46;;;;;;;14.58;6.28;;;;;;;-9.28;89.36;101843.56;1768891;80;21220;-57
2020/12/09 02:16:14;;;;;;;11.97;6.20;;;;;;;-9.26;89.41;101831.77;1764791;81;21121;-57
2020/12/09 02:18:42;;;;;;;13.60;6.40;;;;;;;-9.25;89.34;101846.06;1764603;81;21023;-56
2020/12/09 02:21:10;;;;;;;17.42;7.28;;;;;;;-9.23;89.32;101825.42;1763844;80;21070;-56
2020/12/09 02:23:38;;;;;;;17.10;6.70;;;;;;;-9.22;89.22;101828.35;1767099;81;21209;-56
2020/12/09 02:26:06;;;;;;;15.65;6.17;;;;;;;-9.20;89.07;101827.09;1764108;81;21264;-57
2020/12/09 02:28:35;;;;;;;16.37;6.37;;;;;;;-9.23;88.93;101835.53;1765108;80;21097;-56
2020/12/09 02:31:03;;;;;;;14.90;6.55;;;;;;;-9.29;88.80;101835.59;1765531;80;21039;-56
2020/12/09 02:33:31;;;;;;;15.63;5.92;;;;;;;-9.34;88.82;101836.08;1765571;80;21176;-56
2020/12/09 02:35:59;;;;;;;13.78;6.50;;;;;;;-9.38;88.88;101830.23;1764556;81;21206;-57
2020/12/09 02:38:27;;;;;;;15.32;6.50;;;;;;;-9.41;88.92;101830.25;1763863;81;21098;-58
2020/12/09 02:40:55;;;;;;;13.95;5.72;;;;;;;-9.47;88.97;101813.93;1765053;80;21125;-58
2020/12/09 02:43:24;;;;;;;14.28;6.90;;;;;;;-9.51;89.14;101813.53;1764361;80;21172;-58
2020/12/09 02:45:52;;;;;;;15.50;7.08;;;;;;;-9.55;89.27;101823.25;1766552;81;21185;-56
2020/12/09 02:48:20;;;;;;;16.10;6.80;;;;;;;-9.59;89.40;101823.70;1766699;80;21198;-57
2020/12/09 02:50:48;;;;;;;16.67;7.30;;;;;;;-9.61;89.50;101821.64;1764752;81;21157;-58
2020/12/09 02:53:16;;;;;;;14.87;6.45;;;;;;;-9.60;89.53;101825.83;1724910;82;21125;-56
2020/12/09 02:55:44;;;;;;;16.52;6.97;;;;;;;-9.62;89.44;101835.12;1726618;83;21105;-56
2020/12/09 02:58:12;;;;;;;20.75;7.50;;;;;;;-9.63;89.47;101827.55;1767417;80;21172;-57
2020/12/09 03:00:40;;;;;;;18.65;7.50;;;;;;;-9.62;89.47;101828.81;1766471;81;21212;-56
2020/12/09 03:03:08;;;;;;;16.48;6.62;;;;;;;-9.62;89.39;101838.91;1762806;81;21314;-55
2020/12/09 03:05:36;;;;;;;25.52;6.70;;;;;;;-9.63;89.34;101822.07;1766319;80;21129;-57
2020/12/09 03:08:05;;;;;;;19.55;6.25;;;;;;;-9.61;89.24;101825.43;1762596;81;20955;-56
2020/12/09 03:10:33;;;;;;;16.42;6.47;;;;;;;-9.61;89.13;101827.95;1766983;80;21173;-58
2020/12/09 03:13:01;;;;;;;20.72;7.70;;;;;;;-9.64;89.07;101816.63;1763987;81;21379;-58
2020/12/09 03:15:30;;;;;;;17.50;6.35;;;;;;;-9.65;88.96;101816.22;1771771;80;21113;-58
2020/12/09 03:17:58;;;;;;;21.45;7.30;;;;;;;-9.65;88.87;101820.44;1767244;80;21132;-56
2020/12/09 03:20:26;;;;;;;13.03;6.12;;;;;;;-9.66;88.77;101836.41;1768133;81;21544;-58
2020/12/09 03:22:54;;;;;;;12.85;5.35;;;;;;;-9.68;88.71;101835.61;1763995;81;21085;-56
2020/12/09 03:25:22;;;;;;;14.75;6.75;;;;;;;-9.69;88.59;101836.03;1770153;80;21197;-57
2020/12/09 03:27:50;;;;;;;15.55;5.87;;;;;;;-9.68;88.43;101828.86;1765255;80;21090;-56
2020/12/09 03:30:36;;;;;;;17.73;6.87;;;;;;;-9.69;88.29;101844.03;1766962;81;21141;-57
2020/12/09 03:33:04;;;;;;;15.43;6.58;;;;;;;-9.69;88.16;101833.52;1766542;80;21141;-57
2020/12/09 03:35:32;;;;;;;17.80;6.90;;;;;;;-9.69;88.03;101844.86;1765527;81;21090;-57
2020/12/09 03:38:01;;;;;;;14.78;6.62;;;;;;;-9.70;87.89;101846.95;1763922;80;21196;-56
2020/12/09 03:40:29;;;;;;;16.17;5.50;;;;;;;-9.70;87.83;101843.17;1764909;81;21307;-58
2020/12/09 03:42:57;;;;;;;17.10;7.00;;;;;;;-9.70;87.67;101852.00;1766090;81;21065;-59
2020/12/09 03:45:25;;;;;;;17.50;6.55;;;;;;;-9.69;87.49;101841.08;1768991;81;21240;-58
2020/12/09 03:47:53;;;;;;;17.50;6.90;;;;;;;-9.69;87.37;101854.96;1767952;81;21124;-57
2020/12/09 03:50:21;;;;;;;14.33;6.12;;;;;;;-9.72;87.27;101838.58;1766013;81;21173;-57
2020/12/09 03:52:49;;;;;;;12.60;5.92;;;;;;;-9.72;87.23;101844.06;1767277;80;21039;-58
2020/12/09 03:55:18;;;;;;;15.35;6.75;;;;;;;-9.75;87.15;101844.91;1724988;82;20952;-59
2020/12/09 03:57:46;;;;;;;19.57;7.45;;;;;;;-9.76;87.11;101843.25;1767730;81;21093;-57
2020/12/09 04:00:14;;;;;;;15.05;7.17;;;;;;;-9.76;87.05;101844.52;1726832;82;21142;-59
2020/12/09 04:02:43;;;;;;;32.38;8.48;;;;;;;-9.76;87.00;101839.89;1766799;81;21148;-59
2020/12/09 04:05:11;;;;;;;12.93;6.28;;;;;;;-9.76;86.92;101840.73;1759657;81;21030;-57
2020/12/09 04:07:39;;;;;;;17.17;6.97;;;;;;;-9.78;86.88;101839.89;1769040;81;21229;-58
2020/12/09 04:10:07;;;;;;;12.95;5.67;;;;;;;-9.79;86.87;101840.75;1762330;80;20959;-57
2020/12/09 04:12:35;;;;;;;18.17;6.42;;;;;;;-9.80;86.82;101838.66;1764394;81;21304;-57
2020/12/09 04:15:03;;;;;;;13.75;6.83;;;;;;;-9.83;86.79;101841.63;1763116;81;21344;-59
2020/12/09 04:17:31;;;;;;;15.60;6.62;;;;;;;-9.83;86.80;101842.47;1768371;81;21193;-59
2020/12/09 04:20:00;;;;;;;19.45;8.13;;;;;;;-9.82;86.75;101844.56;1762631;81;21157;-58
2020/12/09 04:22:28;;;;;;;17.45;7.70;;;;;;;-9.85;86.72;101835.35;1766600;80;21026;-57
2020/12/09 04:24:57;;;;;;;16.55;7.40;;;;;;;-9.88;86.71;101837.90;1766961;80;21153;-57
2020/12/09 04:27:24;;;;;;;12.63;6.65;;;;;;;-9.89;86.73;101834.11;1765678;81;21264;-58
2020/12/09 04:29:53;;;;;;;13.38;6.65;;;;;;;-9.90;86.71;101834.97;1762447;81;20998;-56
2020/12/09 04:32:21;;;;;;;16.25;6.42;;;;;;;-9.90;86.71;101832.45;1767369;81;21094;-58
2020/12/09 04:34:49;;;;;;;13.18;5.87;;;;;;;-9.89;86.66;101836.63;1764798;80;21052;-57
2020/12/09 04:37:18;;;;;;;17.62;6.70;;;;;;;-9.92;86.58;101829.95;1766159;80;21113;-57
2020/12/09 04:39:47;;;;;;;17.05;6.40;;;;;;;-9.92;86.56;101830.37;1763380;80;22115;-58
2020/12/09 04:42:19;;;;;;;13.88;5.83;;;;;;;-9.91;86.50;101835.83;1766230;80;21165;-58
2020/12/09 04:44:48;;;;;;;17.25;6.60;;;;;;;-9.92;86.48;101836.69;1765356;81;21082;-57
2020/12/09 04:47:19;;;;;;;18.48;7.35;;;;;;;-9.94;86.46;101830.80;1769336;80;21165;-57
2020/12/09 04:49:47;;;;;;;17.35;6.85;;;;;;;-9.95;86.46;101837.54;1764343;80;21173;-56
2020/12/09 04:52:48;;;;;;;13.08;7.12;;;;;;;-9.97;86.50;101836.70;1766457;81;21204;-57
2020/12/09 04:55:17;;;;;;;16.02;6.00;;;;;;;-9.99;86.51;101835.06;1758705;80;21117;-58
2020/12/09 04:57:55;;;;;;;17.87;7.65;;;;;;;-9.99;86.51;101843.89;1768059;81;20990;-56
2020/12/09 05:00:24;;;;;;;21.93;7.53;;;;;;;-10.00;86.51;101835.89;1759436;80;21217;-56
2020/12/09 05:02:53;;;;;;;12.98;5.75;;;;;;;-10.00;86.51;101840.94;1718187;81;21193;-55
2020/12/09 05:05:23;;;;;;;19.42;6.83;;;;;;;-9.98;86.48;101849.34;1762836;80;21206;-56
2020/12/09 05:07:53;;;;;;;11.53;5.37;;;;;;;-9.97;86.43;101857.31;1766156;81;21167;-57
2020/12/09 05:10:23;;;;;;;12.03;5.72;;;;;;;-9.98;86.42;101845.55;1765257;80;21699;-56
2020/12/09 05:12:53;;;;;;;15.30;7.40;;;;;;;-9.94;86.35;101842.98;1763609;80;21742;-59
2020/12/09 05:15:25;;;;;;;17.12;7.78;;;;;;;-9.93;86.25;101843.81;1765733;80;21185;-59
2020/12/09 05:18:08;;;;;;;13.28;7.12;;;;;;;-9.92;86.15;101850.13;1765959;81;21240;-58
2020/12/09 05:20:38;;;;;;;14.07;7.03;;;;;;;-9.89;85.99;101853.03;1767293;80;21136;-58
2020/12/09 05:23:08;;;;;;;15.60;7.22;;;;;;;-9.76;85.83;101854.61;1726323;82;21124;-57
2020/12/09 05:25:37;;;;;;;16.87;7.60;;;;;;;-9.68;85.41;101851.58;1768076;81;21149;-57
2020/12/09 05:28:06;;;;;;;19.90;7.37;;;;;;;-9.61;85.02;101860.77;1725633;83;21133;-56
2020/12/09 05:30:45;;;;;;;18.00;7.42;;;;;;;-9.51;84.58;101856.87;1768410;81;21375;-58
2020/12/09 05:33:18;;;;;;;16.10;6.87;;;;;;;-9.33;84.17;101857.52;1761330;81;21067;-59
2020/12/09 05:36:01;;;;;;;18.17;7.67;;;;;;;-9.03;83.14;101873.17;1770983;80;20958;-58
2020/12/09 05:38:30;;;;;;;19.85;7.92;;;;;;;-8.75;82.06;101859.77;1765702;80;21086;-58
2020/12/09 05:40:58;;;;;;;18.45;7.17;;;;;;;-8.47;80.50;101864.00;1768965;80;21611;-59
2020/12/09 05:43:27;;;;;;;19.12;8.58;;;;;;;-8.25;79.11;101864.49;1762729;80;21196;-58
2020/12/09 05:45:55;;;;;;;17.95;7.80;;;;;;;-8.05;77.64;101865.88;1768839;81;21150;-57
2020/12/09 05:48:24;;;;;;;17.57;7.60;;;;;;;-7.87;75.98;101869.38;1762246;81;21129;-58
2020/12/09 05:50:58;;;;;;;15.72;7.80;;;;;;;-7.68;74.85;101866.92;1769611;80;21188;-58
2020/12/09 05:53:32;;;;;;;19.57;9.10;;;;;;;-7.47;73.73;101871.19;1765180;80;21113;-57
2020/12/09 05:56:12;;;;;;;19.73;9.43;;;;;;;-7.27;72.42;101870.80;1726084;83;22246;-58
2020/12/09 05:58:43;;;;;;;20.77;9.13;;;;;;;-7.08;71.17;101872.55;1765224;80;21177;-57
2020/12/09 06:01:19;;;;;;;16.12;7.42;;;;;;;-6.91;70.08;101866.72;1769513;80;21009;-57
2020/12/09 06:03:51;;;;;;;15.70;8.00;;;;;;;-6.73;69.13;101876.91;1761179;81;21094;-57
2020/12/09 06:06:27;;;;;;;12.03;6.83;;;;;;;-6.38;66.48;101854.56;1769240;81;21611;-57
2020/12/09 06:09:00;;;;;;;16.73;6.75;;;;;;;-6.38;66.48;101854.56;1767650;80;21447;-58
2020/12/09 06:11:32;;;;;;;15.35;7.10;;;;;;;-6.23;65.06;101859.72;1730848;82;21031;-56
2020/12/09 06:14:00;;;;;;;13.85;6.83;;;;;;;-6.14;64.03;101872.18;1763647;81;21194;-58
2020/12/09 06:16:29;;;;;;;32.00;15.50;;;;;;;-6.12;63.03;101876.36;1765486;80;21094;-57
2020/12/09 06:18:57;;;;;;;17.57;8.53;;;;;;;-6.09;62.74;101856.86;1766843;80;21136;-56
2020/12/09 06:21:25;;;;;;;66.33;28.65;;;;;;;-6.00;62.54;101867.61;1769605;80;21199;-55
2020/12/09 06:23:53;;;;;;;19.17;9.60;;;;;;;-5.91;61.88;101865.23;1765451;81;21157;-56
2020/12/09 06:26:21;;;;;;;16.25;8.03;;;;;;;-5.82;61.51;101875.62;1769007;80;20962;-55
2020/12/09 06:28:50;;;;;;;15.13;6.90;;;;;;;-5.71;60.91;101859.24;1765522;80;20966;-56
2020/12/09 06:31:20;;;;;;;14.87;7.45;;;;;;;-5.64;59.95;101854.41;1767083;81;21152;-56
2020/12/09 06:33:51;;;;;;;17.12;7.60;;;;;;;-5.57;59.46;101862.67;1767100;81;21265;-58
2020/12/09 06:36:28;;;;;;;13.70;6.80;;;;;;;-5.50;59.48;101862.91;1767672;80;21090;-56
2020/12/09 06:39:13;;;;;;;18.82;8.53;;;;;;;-5.39;58.69;101872.36;1761874;80;21166;-56
2020/12/09 06:41:59;;;;;;;20.75;7.95;;;;;;;-5.30;57.99;101873.84;1765099;80;21118;-56
2020/12/09 06:44:30;;;;;;;18.40;9.05;;;;;;;-5.26;57.77;101863.16;1766542;80;21143;-56
2020/12/09 06:46:59;;;;;;;19.20;8.65;;;;;;;-5.15;57.42;101860.70;1766447;81;22221;-57
2020/12/09 06:49:40;;;;;;;20.08;10.08;;;;;;;-5.04;57.20;101852.75;1766270;80;21109;-56
2020/12/09 06:52:16;;;;;;;17.02;8.13;;;;;;;-4.96;56.64;101858.48;1765610;80;21097;-56
2020/12/09 06:54:48;;;;;;;11.45;7.12;;;;;;;-4.97;55.91;101859.33;1757633;80;20999;-55
2020/12/09 06:57:26;;;;;;;25.25;8.13;;;;;;;-4.97;55.81;101861.05;1766673;80;21615;-55
2020/12/09 07:00:15;;;;;;;16.05;7.37;;;;;;;-4.95;55.51;101860.58;1764269;81;21207;-56
2020/12/09 07:02:44;;;;;;;14.58;7.08;;;;;;;-4.92;55.35;101858.78;1764878;81;21110;-57
2020/12/09 07:05:20;;;;;;;14.50;6.85;;;;;;;-4.90;55.32;101864.64;1766233;80;21224;-56
2020/12/09 07:07:50;;;;;;;15.13;6.67;;;;;;;-4.87;54.97;101872.62;1763975;80;21386;-56
2020/12/09 07:10:25;;;;;;;12.35;6.10;;;;;;;-4.84;55.19;101865.36;1766095;80;21499;-56
2020/12/09 07:13:15;;;;;;;14.53;7.03;;;;;;;-4.72;54.80;101872.18;1761388;81;21272;-56
2020/12/09 07:15:46;;;;;;;14.60;7.35;;;;;;;-4.61;54.25;101858.31;1763483;80;21174;-55
2020/12/09 07:18:15;;;;;;;14.55;7.15;;;;;;;-4.60;53.83;101851.06;1768106;80;21145;-54
2020/12/09 07:20:43;;;;;;;15.32;7.22;;;;;;;-4.58;53.90;101856.51;1761203;81;20992;-57
2020/12/09 07:23:12;;;;;;;13.88;6.75;;;;;;;-4.51;53.62;101846.95;1765894;80;21157;-57
2020/12/09 07:25:42;;;;;;;16.90;6.80;;;;;;;-4.50;53.39;101835.91;1764422;81;21202;-57
2020/12/09 07:28:10;;;;;;;16.45;7.20;;;;;;;-4.47;53.41;101836.66;1762760;81;21083;-56
2020/12/09 07:30:38;;;;;;;15.70;6.75;;;;;;;-4.43;53.26;101845.03;1762507;81;21169;-57
2020/12/09 07:33:06;;;;;;;17.48;8.00;;;;;;;-4.42;53.07;101841.59;1769206;80;21101;-58
2020/12/09 07:35:35;;;;;;;16.67;7.33;;;;;;;-4.31;53.27;101845.91;1762271;81;21205;-59
2020/12/09 07:38:03;;;;;;;13.70;6.70;;;;;;;-4.21;52.72;101845.16;1766691;81;21170;-57
2020/12/09 07:40:34;;;;;;;14.78;6.30;;;;;;;-4.17;52.31;101839.94;1755298;81;21158;-56
2020/12/09 07:43:11;;;;;;;13.05;7.12;;;;;;;-4.12;51.99;101893.71;1755639;81;21197;-55
2020/12/09 07:45:44;;;;;;;22.95;8.85;;;;;;;-4.12;51.73;101860.16;1759746;81;21709;-56
2020/12/09 07:48:16;;;;;;;15.40;8.33;;;;;;;-4.07;51.79;101868.92;1761653;81;21233;-56
2020/12/09 07:50:52;;;;;;;15.23;8.15;;;;;;;-4.00;51.83;101865.30;1753837;80;21371;-55
2020/12/09 07:53:20;;;;;;;15.93;8.00;;;;;;;-3.86;51.05;101859.31;1750762;81;22041;-56
2020/12/09 07:55:49;;;;;;;14.33;8.08;;;;;;;-3.81;51.08;101857.43;1744281;81;21129;-56
2020/12/09 07:58:17;;;;;;;11.22;6.08;;;;;;;-3.77;50.79;101853.89;1741495;81;21110;-56
2020/12/09 08:00:47;;;;;;;13.88;7.20;;;;;;;-3.74;50.34;101856.34;1753947;81;21121;-56
2020/12/09 08:03:26;;;;;;;15.45;7.25;;;;;;;-3.75;50.44;101862.33;1756835;81;21647;-55
2020/12/09 08:05:56;;;;;;;13.28;6.50;;;;;;;-3.71;50.27;101866.89;1758457;81;21252;-54
2020/12/09 08:11:06;;;;;;;18.57;8.37;;;;;;;-3.61;50.16;101868.66;1861370;75;22753;-56
2020/12/09 08:13:35;;;;;;;14.07;6.62;;;;;;;-3.57;50.23;101848.11;1835080;77;20919;-56
2020/12/09 08:16:12;;;;;;;15.05;7.75;;;;;;;-3.43;49.69;101869.31;1846876;77;21259;-55
2020/12/09 08:18:42;;;;;;;19.15;6.83;;;;;;;-3.40;49.70;101851.81;1837631;77;21033;-55
2020/12/09 08:21:11;;;;;;;12.73;6.12;;;;;;;-3.33;49.51;101866.84;1844353;77;20986;-54
2020/12/09 08:23:43;;;;;;;17.55;7.40;;;;;;;-3.31;49.28;101870.14;1849980;77;20986;-55
2020/12/09 08:26:12;;;;;;;17.27;6.45;;;;;;;-3.30;49.09;101850.13;1856369;77;20946;-54
2020/12/09 08:28:46;;;;;;;12.88;6.25;;;;;;;-3.24;49.25;101869.49;1845661;77;22009;-56
2020/12/09 08:31:16;;;;;;;15.32;6.47;;;;;;;-3.19;49.29;101851.85;1855463;77;21025;-55
2020/12/09 08:33:44;;;;;;;13.78;6.40;;;;;;;-3.05;49.02;101839.05;1836024;77;20919;-56
2020/12/09 08:36:17;;;;;;;27.55;6.65;;;;;;;-2.96;48.97;101841.25;1845807;77;21133;-56
2020/12/09 08:38:59;;;;;;;18.42;7.30;;;;;;;-2.86;48.71;101848.96;1814877;78;21046;-57
2020/12/09 08:41:30;;;;;;;15.35;7.33;;;;;;;-2.80;48.48;101851.74;1818761;78;21551;-56
2020/12/09 08:44:02;;;;;;;20.45;7.47;;;;;;;-2.72;48.51;101851.83;1803527;78;21558;-56
2020/12/09 08:46:30;;;;;;;14.95;6.83;;;;;;;-2.67;48.34;101847.82;1802312;78;21064;-56
2020/12/09 08:48:58;;;;;;;14.75;6.75;;;;;;;-2.61;48.40;101831.00;1810114;78;20989;-56
2020/12/09 08:51:28;;;;;;;17.75;6.72;;;;;;;-2.48;48.25;101823.69;1812926;78;21151;-56
2020/12/09 08:53:56;;;;;;;15.85;5.97;;;;;;;-2.35;47.79;101827.84;1813138;78;22166;-55
2020/12/09 08:56:28;;;;;;;15.40;6.85;;;;;;;-2.35;47.50;101823.59;1822005;78;21585;-56
2020/12/09 08:58:57;;;;;;;23.30;9.40;;;;;;;-2.38;47.70;101825.44;1810802;78;21569;-56
2020/12/09 09:01:25;;;;;;;19.00;7.50;;;;;;;-2.36;48.19;101812.97;1812474;78;21061;-55
2020/12/09 09:04:06;;;;;;;15.48;7.12;;;;;;;-2.25;47.68;101817.20;1801852;78;21082;-56
2020/12/09 09:06:29;;;;;;;18.20;8.70;;;;;;;-2.16;47.65;101815.16;1810176;78;21244;-57
2020/12/09 09:08:57;;;;;;;13.88;6.67;;;;;;;-2.08;47.36;101816.98;1817331;78;21011;-57
2020/12/09 09:11:26;;;;;;;15.93;7.55;;;;;;;-2.00;47.33;101818.31;1822597;78;21135;-56
2020/12/09 09:13:54;;;;;;;14.90;6.70;;;;;;;-1.87;47.05;101833.13;1813914;78;21009;-55
2020/12/09 09:16:22;;;;;;;12.50;7.00;;;;;;;-1.83;46.86;101816.32;1818297;78;21009;-56
2020/12/09 09:18:50;;;;;;;20.12;6.90;;;;;;;-1.82;46.65;101821.84;1817824;78;21260;-54
2020/12/09 09:21:18;;;;;;;20.37;6.75;;;;;;;-1.85;46.42;101827.52;1820975;78;21025;-55
2020/12/09 09:23:46;;;;;;;16.85;6.53;;;;;;;-1.90;47.03;101821.30;1816946;78;21128;-56
2020/12/09 09:26:16;;;;;;;13.78;5.78;;;;;;;-1.84;47.10;101816.40;1818550;78;21171;-56
2020/12/09 09:28:44;;;;;;;18.00;7.00;;;;;;;-1.76;47.38;101815.17;1810669;78;20946;-57
2020/12/09 09:31:12;;;;;;;14.70;6.35;;;;;;;-1.62;47.10;101804.81;1816803;78;21196;-55
2020/12/09 09:33:41;;;;;;;11.00;6.22;;;;;;;-1.51;46.98;101817.96;1820417;78;21041;-55
2020/12/09 09:36:09;;;;;;;14.43;6.08;;;;;;;-1.41;46.56;101813.26;1816795;78;21015;-55
2020/12/09 09:38:37;;;;;;;12.98;6.87;;;;;;;-1.35;46.28;101805.33;1821595;78;21191;-56
2020/12/09 09:41:05;;;;;;;11.03;6.08;;;;;;;-1.34;45.68;101795.02;1814993;78;21025;-55
2020/12/09 09:43:33;;;;;;;11.22;5.40;;;;;;;-1.37;45.76;101795.14;1820139;78;21214;-54
2020/12/09 09:46:02;;;;;;;13.28;6.50;;;;;;;-1.42;45.69;101794.53;1818846;78;21017;-55
2020/12/09 09:48:30;;;;;;;13.72;6.65;;;;;;;-1.43;45.89;101795.44;1820234;78;21171;-56
2020/12/09 09:50:58;;;;;;;11.50;5.83;;;;;;;-1.37;45.97;101795.59;1811412;78;21012;-54
2020/12/09 09:53:26;;;;;;;12.03;5.60;;;;;;;-1.28;45.91;101786.25;1739122;81;21026;-55
2020/12/09 09:55:54;;;;;;;14.38;5.67;;;;;;;-1.19;45.55;101787.10;1754797;81;21159;-55
2020/12/09 09:58:22;;;;;;;9.95;5.10;;;;;;;-1.17;45.36;101792.17;1774815;80;21109;-54
2020/12/09 10:00:50;;;;;;;10.32;5.08;;;;;;;-1.18;45.41;101789.20;1755982;81;21192;-52
2020/12/09 10:03:19;;;;;;;8.03;4.60;;;;;;;-1.19;45.28;101788.84;1760207;81;21025;-54
2020/12/09 10:05:47;;;;;;;11.25;5.10;;;;;;;-1.19;45.36;101774.77;1778703;80;21057;-54
2020/12/09 10:08:15;;;;;;;11.97;5.60;;;;;;;-1.12;45.51;101779.98;1754935;81;21211;-55
2020/12/09 10:10:43;;;;;;;11.33;5.30;;;;;;;-1.05;45.32;101774.97;1780428;80;20986;-54
2020/12/09 10:13:12;;;;;;;9.88;5.10;;;;;;;-0.98;45.20;101771.23;1757749;81;20963;-53
2020/12/09 10:15:40;;;;;;;12.23;6.92;;;;;;;-0.95;45.04;101765.94;1770436;80;21002;-53
2020/12/09 10:18:10;;;;;;;11.95;6.03;;;;;;;-0.92;44.86;101758.58;1754002;81;21136;-53
2020/12/09 10:20:38;;;;;;;11.48;6.00;;;;;;;-0.91;44.89;101760.23;1772124;80;21260;-53
2020/12/09 10:23:06;;;;;;;11.55;6.37;;;;;;;-0.89;44.73;101757.16;1774022;80;21005;-53
2020/12/09 10:25:34;;;;;;;14.30;6.15;;;;;;;-0.92;44.75;101747.06;1754395;81;21025;-55
2020/12/09 10:28:02;;;;;;;16.00;7.60;;;;;;;-0.92;44.94;101759.41;1748242;81;21093;-54
2020/12/09 10:30:31;;;;;;;12.07;6.10;;;;;;;-0.88;45.03;101756.25;1783963;80;21109;-56
2020/12/09 10:32:59;;;;;;;15.95;6.60;;;;;;;-0.82;45.12;101753.41;1746489;81;21441;-56
2020/12/09 10:35:29;;;;;;;19.50;9.00;;;;;;;-0.77;45.23;101741.21;1782120;80;21046;-56
2020/12/09 10:37:57;;;;;;;18.37;7.62;;;;;;;-0.69;45.23;101728.86;1775123;80;21613;-54
2020/12/09 10:40:25;;;;;;;13.18;6.80;;;;;;;-0.59;45.09;101731.82;1763060;81;21212;-54
2020/12/09 10:42:53;;;;;;;15.03;5.87;;;;;;;-0.57;44.81;101728.30;1777772;80;21096;-55
2020/12/09 10:45:21;;;;;;;12.85;5.80;;;;;;;-0.56;44.98;101738.91;1753357;81;21207;-56
2020/12/09 10:47:50;;;;;;;10.88;6.30;;;;;;;-0.55;44.77;101717.50;1775352;80;21226;-56
2020/12/09 10:50:18;;;;;;;11.73;5.50;;;;;;;-0.55;44.88;101719.23;1754298;81;21029;-55
2020/12/09 10:52:46;;;;;;;14.53;6.53;;;;;;;-0.51;45.05;101716.91;1743009;81;21108;-53
2020/12/09 10:55:14;;;;;;;12.70;5.90;;;;;;;-0.46;44.97;101724.36;1782125;80;21073;-52
2020/12/09 10:57:42;;;;;;;12.80;5.50;;;;;;;-0.46;45.15;101722.62;1778678;80;21209;-53
2020/12/09 11:00:10;;;;;;;13.08;6.28;;;;;;;-0.41;45.17;101723.23;1780231;80;21030;-54
2020/12/09 11:02:39;;;;;;;16.40;5.53;;;;;;;-0.32;45.26;101723.22;1777682;80;21109;-54
2020/12/09 11:05:07;;;;;;;13.98;6.03;;;;;;;-0.23;45.11;101711.22;1751385;81;21038;-57
2020/12/09 11:07:35;;;;;;;11.68;5.35;;;;;;;-0.16;45.16;101706.62;1781672;80;21061;-55
2020/12/09 11:10:03;;;;;;;14.20;6.25;;;;;;;-0.12;45.04;101706.84;1763427;81;21219;-54
2020/12/09 11:12:31;;;;;;;12.85;4.80;;;;;;;-0.10;44.79;101714.01;1772113;80;21058;-57
2020/12/09 11:15:00;;;;;;;18.57;6.83;;;;;;;-0.10;44.89;101710.16;1778219;80;20958;-55
2020/12/09 11:17:28;;;;;;;22.22;6.35;;;;;;;-0.08;44.94;101701.47;1751189;81;21218;-54
2020/12/09 11:19:56;;;;;;;18.80;6.35;;;;;;;-0.05;44.79;101715.41;1753655;81;21184;-55
2020/12/09 11:22:24;;;;;;;10.50;4.50;;;;;;;-0.07;44.73;101717.70;1781037;80;21388;-54
2020/12/09 11:24:52;;;;;;;14.95;5.70;;;;;;;-0.11;44.80;101696.98;1756605;81;21196;-57
2020/12/09 11:27:21;;;;;;;15.10;6.33;;;;;;;-0.12;44.99;101700.42;1765081;81;21180;-55
2020/12/09 11:29:49;;;;;;;15.90;5.40;;;;;;;-0.12;45.02;101683.31;1771582;80;21141;-56
2020/12/09 11:32:17;;;;;;;12.85;4.35;;;;;;;-0.11;44.87;101690.12;1754115;81;21038;-56